Time;durP1;ratioP1;P1;durP2;ratioP2;P2;SDS_P1;SDS_P2;PMS_P1;PMS_P2;Temp;Humidity;BMP_temperature;BMP_pressure;BME280_temperature;BME280_humidity;BME280_pressure;Samples;Min_cycle;Max_cycle;Signal;HPM_P1;HPM_P2
2021/04/30 00:00:38;;;;;;;18.08;16.02;;;;;;;8.58;73.65;99865.66;5088263;28;20062;-81
2021/04/30 00:03:05;;;;;;;18.77;15.98;;;;;;;8.60;74.47;99863.75;5113731;28;20035;-80
2021/04/30 00:05:32;;;;;;;20.42;15.50;;;;;;;8.51;74.42;99859.97;5094768;28;20052;-82
2021/04/30 00:07:59;;;;;;;18.23;14.80;;;;;;;8.57;73.56;99858.72;5081571;28;20076;-77
2021/04/30 00:10:27;;;;;;;16.92;13.27;;;;;;;8.59;73.20;99859.47;5089227;28;20057;-81
2021/04/30 00:12:54;;;;;;;17.05;13.50;;;;;;;8.35;73.97;99862.66;5076967;28;20123;-77
2021/04/30 00:15:21;;;;;;;17.48;13.27;;;;;;;8.46;73.39;99864.63;5068023;28;20498;-78
2021/04/30 00:17:48;;;;;;;18.23;13.40;;;;;;;8.48;73.30;99860.13;5079789;28;20044;-79
2021/04/30 00:20:15;;;;;;;17.48;12.57;;;;;;;8.48;73.24;99860.13;5083121;28;20434;-78
2021/04/30 00:22:42;;;;;;;14.10;11.70;;;;;;;8.46;73.66;99879.53;5057855;28;20501;-78
2021/04/30 00:25:10;;;;;;;13.30;11.15;;;;;;;8.55;72.49;99869.28;5073925;28;20098;-78
2021/04/30 00:27:37;;;;;;;17.20;11.30;;;;;;;8.47;72.62;99862.88;5075049;28;20135;-78
2021/04/30 00:30:06;;;;;;;15.88;10.75;;;;;;;8.41;72.73;99876.34;5076201;28;20139;-77
2021/04/30 00:32:33;;;;;;;13.32;11.45;;;;;;;8.37;72.97;99873.06;5091682;28;20094;-80
2021/04/30 00:35:01;;;;;;;13.13;11.18;;;;;;;8.19;74.39;99864.50;5100614;28;20056;-83
2021/04/30 00:37:28;;;;;;;13.43;11.45;;;;;;;8.30;73.77;99869.97;5078195;28;20087;-80
2021/04/30 00:39:55;;;;;;;15.23;11.93;;;;;;;8.17;73.73;99874.25;5083392;28;20052;-78
2021/04/30 00:42:21;;;;;;;17.27;11.65;;;;;;;8.24;73.54;99879.97;5084307;28;20052;-79
2021/04/30 00:44:48;;;;;;;14.95;12.57;;;;;;;8.20;73.21;99881.13;5055628;28;20054;-79
2021/04/30 00:47:25;;;;;;;14.05;11.63;;;;;;;8.07;73.41;99873.16;5083723;28;20161;-79
2021/04/30 00:49:52;;;;;;;13.55;11.15;;;;;;;8.02;74.80;99883.06;5090675;28;20107;-79
2021/04/30 00:52:19;;;;;;;14.45;12.13;;;;;;;8.12;74.62;99876.31;5063168;28;20426;-79
2021/04/30 00:54:46;;;;;;;15.93;12.32;;;;;;;8.20;73.72;99879.34;5058816;28;20049;-79
2021/04/30 00:57:13;;;;;;;13.82;11.80;;;;;;;8.25;73.83;99886.91;5057718;28;20055;-78
2021/04/30 00:59:40;;;;;;;13.38;11.02;;;;;;;8.20;73.81;99881.97;5088719;28;20123;-79
2021/04/30 01:02:11;;;;;;;16.83;12.02;;;;;;;8.13;74.29;99889.34;5089099;28;20096;-84
2021/04/30 01:04:38;;;;;;;12.55;11.10;;;;;;;8.07;74.21;99894.97;5066135;28;20579;-80
2021/04/30 01:07:04;;;;;;;14.27;12.00;;;;;;;8.09;74.22;99893.06;5089561;28;20159;-78
2021/04/30 01:09:31;;;;;;;16.13;12.77;;;;;;;8.15;74.45;99897.13;5088466;28;20055;-80
2021/04/30 01:11:58;;;;;;;16.40;13.18;;;;;;;8.30;74.16;99897.97;5067328;28;20049;-80
2021/04/30 01:14:25;;;;;;;14.65;12.30;;;;;;;8.28;73.50;99897.19;5091247;28;20127;-81
2021/04/30 01:16:52;;;;;;;17.20;11.95;;;;;;;8.08;74.06;99890.56;5069782;28;20052;-79
2021/04/30 01:19:29;;;;;;;16.20;11.20;;;;;;;8.13;74.24;99898.97;5092040;28;20108;-80
2021/04/30 01:21:57;;;;;;;16.77;13.02;;;;;;;8.21;73.96;99909.00;5079146;28;20075;-79
2021/04/30 01:24:24;;;;;;;21.35;11.80;;;;;;;8.19;74.20;99901.22;5076467;28;20152;-80
2021/04/30 01:26:52;;;;;;;15.93;13.13;;;;;;;8.13;74.43;99902.44;5100795;28;20057;-79
2021/04/30 01:29:19;;;;;;;14.85;12.52;;;;;;;8.14;74.69;99911.16;5086944;28;20076;-81
2021/04/30 01:31:46;;;;;;;16.10;13.40;;;;;;;8.00;74.98;99906.72;5091845;28;20051;-81
2021/04/30 01:34:13;;;;;;;15.50;12.60;;;;;;;8.10;74.70;99907.03;5088083;28;20067;-80
2021/04/30 01:36:40;;;;;;;17.83;12.30;;;;;;;8.19;74.23;99916.09;5052522;28;20086;-80
2021/04/30 01:39:10;;;;;;;16.25;11.85;;;;;;;8.11;74.38;99927.91;5076854;28;20079;-79
2021/04/30 01:41:37;;;;;;;15.32;11.60;;;;;;;8.13;74.67;99914.72;5084088;28;20048;-79
2021/04/30 01:44:12;;;;;;;15.27;12.00;;;;;;;8.06;75.35;99918.63;5069378;28;20103;-80
2021/04/30 01:46:39;;;;;;;14.40;12.10;;;;;;;8.02;75.36;99919.75;5059554;28;20108;-79
2021/04/30 01:49:08;;;;;;;13.93;11.70;;;;;;;7.91;75.26;99924.78;5077384;28;20060;-78
2021/04/30 01:51:35;;;;;;;13.63;11.00;;;;;;;7.84;75.96;99919.91;5066036;28;20076;-79
2021/04/30 01:54:03;;;;;;;13.23;11.27;;;;;;;7.95;75.75;99929.75;5055577;28;20078;-82
2021/04/30 01:56:30;;;;;;;15.48;11.93;;;;;;;7.99;75.32;99928.63;5077507;28;20099;-82
2021/04/30 01:58:57;;;;;;;17.27;13.52;;;;;;;7.94;75.59;99927.22;5062171;28;20121;-79
2021/04/30 02:01:24;;;;;;;13.80;12.05;;;;;;;7.86;76.08;99927.69;5068218;28;20109;-79
2021/04/30 02:03:51;;;;;;;16.20;11.60;;;;;;;7.86;76.29;99933.75;5092508;28;20078;-81
2021/04/30 02:06:18;;;;;;;14.40;12.88;;;;;;;7.81;76.82;99940.22;5092844;28;20056;-80
2021/04/30 02:08:44;;;;;;;15.15;10.80;;;;;;;7.78;76.67;99943.00;5068171;28;20173;-77
2021/04/30 02:11:11;;;;;;;15.00;12.30;;;;;;;7.80;77.01;99942.00;5073076;28;20124;-76
2021/04/30 02:13:38;;;;;;;13.23;11.75;;;;;;;7.87;76.95;99939.84;5099321;28;20072;-76
2021/04/30 02:16:05;;;;;;;15.48;12.45;;;;;;;7.85;76.82;99952.19;5079845;28;20071;-76
2021/04/30 02:18:31;;;;;;;16.27;12.15;;;;;;;7.93;76.67;99949.97;5091784;28;20095;-79
2021/04/30 02:20:58;;;;;;;13.82;12.32;;;;;;;7.89;76.73;99955.50;5102390;27;20039;-79
2021/04/30 02:23:25;;;;;;;15.52;11.85;;;;;;;7.86;77.18;99961.75;5089164;28;20040;-77
2021/04/30 02:25:52;;;;;;;14.45;11.60;;;;;;;7.93;77.03;99960.47;5069761;28;20126;-78
2021/04/30 02:28:19;;;;;;;15.70;11.38;;;;;;;8.03;76.19;99966.84;5091951;28;20079;-77
2021/04/30 02:30:46;;;;;;;14.50;11.75;;;;;;;8.06;76.38;99953.56;5054049;28;20090;-78
2021/04/30 02:33:13;;;;;;;14.20;10.88;;;;;;;8.05;76.48;99964.97;5045070;28;20095;-77
2021/04/30 02:35:45;;;;;;;13.23;11.35;;;;;;;7.73;77.88;99968.63;5074570;28;20067;-77
2021/04/30 02:38:13;;;;;;;15.00;11.35;;;;;;;7.76;78.04;99961.44;5076363;28;20152;-77
2021/04/30 02:40:41;;;;;;;12.07;10.80;;;;;;;7.90;77.17;99965.88;5083583;28;20414;-77
2021/04/30 02:43:14;;;;;;;16.70;12.40;;;;;;;7.78;78.78;99966.56;5071772;28;20131;-77
2021/04/30 02:45:42;;;;;;;15.77;12.27;;;;;;;7.78;78.29;99967.41;5075863;28;20249;-78
2021/04/30 02:48:14;;;;;;;14.82;11.55;;;;;;;7.69;79.72;99970.56;5085282;28;20052;-77
2021/04/30 02:50:42;;;;;;;14.98;11.63;;;;;;;7.82;79.17;99966.31;5084927;28;20072;-76
2021/04/30 02:53:09;;;;;;;15.85;13.25;;;;;;;7.67;79.86;99966.38;5075705;28;20468;-76
2021/04/30 02:55:35;;;;;;;16.63;12.80;;;;;;;7.56;80.75;99969.59;5089933;28;20135;-77
2021/04/30 02:58:02;;;;;;;15.98;12.05;;;;;;;7.55;80.95;99973.13;5084339;28;20072;-76
2021/04/30 03:00:29;;;;;;;14.65;12.32;;;;;;;7.44;82.00;99978.16;5090250;28;20156;-76
2021/04/30 03:02:56;;;;;;;21.05;12.95;;;;;;;7.55;81.72;99981.84;5049209;28;20410;-76
2021/04/30 03:05:24;;;;;;;16.40;12.30;;;;;;;7.49;82.17;99989.22;5081036;28;20048;-76
2021/04/30 03:07:50;;;;;;;20.40;13.57;;;;;;;7.59;81.95;99998.22;5059127;28;20048;-80
2021/04/30 03:10:17;;;;;;;17.10;12.73;;;;;;;7.45;82.96;99990.31;5082713;28;20135;-79
2021/04/30 03:12:44;;;;;;;16.13;12.80;;;;;;;7.56;82.82;99988.75;5055036;28;20044;-79
2021/04/30 03:15:13;;;;;;;19.23;13.07;;;;;;;7.53;83.32;99998.59;5088594;28;20105;-79
2021/04/30 03:17:39;;;;;;;19.60;13.98;;;;;;;7.39;84.55;100004.59;5067752;28;20451;-80
2021/04/30 03:20:07;;;;;;;17.77;12.70;;;;;;;7.34;85.20;100004.84;5093939;28;20079;-79
2021/04/30 03:22:34;;;;;;;15.70;13.15;;;;;;;7.36;86.13;100010.84;5093132;28;20702;-79
2021/04/30 03:25:01;;;;;;;16.27;13.85;;;;;;;7.44;86.33;100014.81;5084871;28;20083;-81
2021/04/30 03:27:28;;;;;;;15.35;13.35;;;;;;;7.41;87.47;100015.81;5072198;28;20058;-81
2021/04/30 03:29:55;;;;;;;17.52;14.82;;;;;;;7.16;89.84;100015.47;5061704;28;20050;-79
2021/04/30 03:32:23;;;;;;;19.55;15.30;;;;;;;6.97;92.43;100021.69;5045113;28;20565;-81
2021/04/30 03:34:53;;;;;;;22.02;15.57;;;;;;;6.98;92.72;100025.16;5090108;28;20122;-81
2021/04/30 03:37:21;;;;;;;23.48;17.10;;;;;;;6.81;95.11;100044.38;5070717;28;20115;-81
2021/04/30 03:39:48;;;;;;;17.23;15.18;;;;;;;6.94;93.41;100036.75;5089181;28;20072;-79
2021/04/30 03:42:15;;;;;;;21.35;16.48;;;;;;;6.90;93.63;100043.06;5084291;28;20052;-80
2021/04/30 03:44:42;;;;;;;19.67;15.20;;;;;;;6.76;94.19;100044.63;5071621;28;20144;-82
2021/04/30 03:47:10;;;;;;;21.33;17.27;;;;;;;6.85;94.65;100046.75;5068231;28;20050;-82
2021/04/30 03:49:38;;;;;;;18.35;16.00;;;;;;;6.94;94.82;100039.34;5081715;28;20047;-82
2021/04/30 03:52:06;;;;;;;20.23;16.77;;;;;;;6.87;94.40;100041.44;5081589;28;20155;-79
2021/04/30 03:54:33;;;;;;;18.67;15.25;;;;;;;7.02;94.76;100038.00;5070097;28;20167;-81
2021/04/30 03:57:00;;;;;;;19.15;16.13;;;;;;;7.00;94.42;100037.25;5074548;28;20056;-79
2021/04/30 03:59:27;;;;;;;17.92;15.05;;;;;;;6.88;94.26;100039.66;5079047;28;20455;-79
2021/04/30 04:01:54;;;;;;;17.40;14.90;;;;;;;6.99;93.13;100046.03;5066447;28;20049;-79
2021/04/30 04:04:21;;;;;;;15.98;13.77;;;;;;;7.13;93.14;100047.91;5058983;28;20076;-79
2021/04/30 04:06:47;;;;;;;17.70;14.95;;;;;;;7.18;92.27;100045.03;5072314;28;20089;-79
2021/04/30 04:09:14;;;;;;;17.88;14.93;;;;;;;7.06;92.61;100047.38;5071953;28;20514;-79
2021/04/30 04:11:42;;;;;;;18.20;14.55;;;;;;;7.14;92.43;100054.81;5067644;28;20059;-78
2021/04/30 04:14:10;;;;;;;20.80;15.35;;;;;;;7.13;92.66;100052.31;5061418;28;20097;-78
2021/04/30 04:16:36;;;;;;;18.92;15.23;;;;;;;7.37;91.95;100061.44;5061683;28;20138;-78
2021/04/30 04:19:03;;;;;;;20.17;14.63;;;;;;;7.29;91.36;100066.22;5063178;28;20368;-78
2021/04/30 04:21:30;;;;;;;18.48;14.60;;;;;;;7.47;91.02;100077.47;5064612;28;20122;-79
2021/04/30 04:24:00;;;;;;;17.50;14.10;;;;;;;7.43;90.04;100071.59;5056933;28;20102;-79
2021/04/30 04:26:41;;;;;;;15.68;13.98;;;;;;;7.24;90.92;100082.19;5050444;28;20041;-78
2021/04/30 04:29:08;;;;;;;15.10;13.52;;;;;;;7.32;91.03;100073.94;5056125;28;20485;-77
2021/04/30 04:31:35;;;;;;;17.73;15.15;;;;;;;7.40;90.78;100086.63;5080677;28;20135;-79
2021/04/30 04:34:03;;;;;;;17.77;14.52;;;;;;;7.49;89.99;100086.13;5078712;28;20095;-78
2021/04/30 04:36:29;;;;;;;17.85;15.95;;;;;;;7.41;90.46;100086.53;5057940;28;20127;-78
2021/04/30 04:38:56;;;;;;;19.65;15.07;;;;;;;7.47;90.46;100090.56;5063994;28;20052;-83
2021/04/30 04:41:23;;;;;;;19.27;15.23;;;;;;;7.46;89.73;100101.97;5083759;28;20053;-81
2021/04/30 04:43:50;;;;;;;20.42;14.82;;;;;;;7.52;89.69;100104.25;5094653;28;20130;-82
2021/04/30 04:46:16;;;;;;;15.95;14.23;;;;;;;7.43;89.65;100107.38;5070747;28;20063;-79
2021/04/30 04:48:44;;;;;;;18.83;14.70;;;;;;;7.36;90.49;100106.88;5075969;28;20134;-79
2021/04/30 04:51:11;;;;;;;16.50;14.65;;;;;;;7.31;90.98;100114.13;5061248;28;20127;-78
2021/04/30 04:53:38;;;;;;;19.30;15.55;;;;;;;7.46;90.10;100118.53;5072665;28;20097;-76
2021/04/30 04:56:18;;;;;;;17.65;15.27;;;;;;;7.50;89.42;100125.31;5079094;28;20122;-77
2021/04/30 04:58:47;;;;;;;24.83;15.82;;;;;;;7.48;89.85;100121.94;5073114;28;20132;-78
2021/04/30 05:01:14;;;;;;;18.50;14.75;;;;;;;7.55;89.32;100125.06;5067825;28;20135;-78
2021/04/30 05:03:41;;;;;;;17.77;14.63;;;;;;;7.36;89.85;100131.28;5087875;28;20465;-79
2021/04/30 05:06:08;;;;;;;17.77;14.75;;;;;;;7.22;90.52;100131.19;5089147;28;20067;-77
2021/04/30 05:08:35;;;;;;;18.10;14.93;;;;;;;7.33;90.56;100138.44;5065243;28;20052;-77
2021/04/30 05:11:03;;;;;;;19.38;15.02;;;;;;;7.34;90.97;100130.53;5092191;28;20448;-77
2021/04/30 05:13:32;;;;;;;18.27;15.15;;;;;;;7.45;90.69;100129.94;5075948;28;20059;-79
2021/04/30 05:16:00;;;;;;;16.77;14.70;;;;;;;7.44;90.09;100133.50;5080756;28;20044;-77
2021/04/30 05:18:26;;;;;;;19.20;15.70;;;;;;;7.53;90.32;100137.41;5060467;28;20123;-77
2021/04/30 05:20:54;;;;;;;18.83;15.40;;;;;;;7.57;90.31;100147.63;5052885;28;20567;-78
2021/04/30 05:23:21;;;;;;;18.40;15.40;;;;;;;7.55;90.68;100153.88;5077912;28;20470;-80
2021/04/30 05:25:50;;;;;;;21.75;14.93;;;;;;;7.57;91.21;100152.88;5057926;28;20075;-78
2021/04/30 05:28:17;;;;;;;18.42;15.82;;;;;;;7.52;90.62;100149.66;5091268;28;20079;-77
2021/04/30 05:30:44;;;;;;;21.25;18.75;;;;;;;7.70;89.76;100157.41;5069385;28;20127;-77
2021/04/30 05:33:11;;;;;;;19.05;16.45;;;;;;;7.74;89.24;100165.03;5080933;28;20052;-79
2021/04/30 05:35:37;;;;;;;19.83;16.02;;;;;;;7.74;87.52;100157.16;5092894;28;20627;-78
2021/04/30 05:38:05;;;;;;;19.55;14.75;;;;;;;7.80;88.01;100175.19;5091222;28;20063;-78
2021/04/30 05:40:33;;;;;;;18.67;14.80;;;;;;;7.64;87.92;100174.31;5048512;28;20056;-77
2021/04/30 05:43:00;;;;;;;20.08;15.10;;;;;;;7.52;89.28;100186.31;5067566;28;20592;-77
2021/04/30 05:45:27;;;;;;;16.25;13.60;;;;;;;7.66;87.91;100184.75;5064560;28;20055;-78
2021/04/30 05:47:54;;;;;;;22.50;14.30;;;;;;;7.51;88.58;100186.38;5062001;28;20127;-75
2021/04/30 05:50:20;;;;;;;26.42;14.75;;;;;;;7.67;88.10;100195.13;5077836;28;20456;-75
2021/04/30 05:52:47;;;;;;;17.92;12.77;;;;;;;7.82;87.22;100182.97;5080544;28;20132;-76
2021/04/30 05:55:14;;;;;;;15.48;12.85;;;;;;;7.83;86.03;100197.75;5073151;28;20045;-76
2021/04/30 05:57:41;;;;;;;22.17;15.18;;;;;;;7.57;86.96;100200.03;5082782;28;20048;-81
2021/04/30 06:00:10;;;;;;;18.23;15.60;;;;;;;7.72;86.59;100198.34;5069513;28;20158;-74
2021/04/30 06:02:37;;;;;;;19.42;14.93;;;;;;;7.82;86.00;100210.00;5078974;28;20539;-74
2021/04/30 06:05:05;;;;;;;18.20;13.80;;;;;;;7.85;84.28;100206.41;5062192;28;20044;-74
2021/04/30 06:07:32;;;;;;;15.30;13.68;;;;;;;7.76;84.87;100201.66;5070118;28;20051;-74
2021/04/30 06:09:59;;;;;;;16.77;14.07;;;;;;;7.69;85.66;100205.53;5079030;28;20135;-74
2021/04/30 06:12:25;;;;;;;14.32;12.55;;;;;;;7.63;85.83;100213.72;5080463;28;20122;-74
2021/04/30 06:14:52;;;;;;;13.40;11.55;;;;;;;7.79;85.02;100211.94;5062449;28;20048;-74
2021/04/30 06:17:20;;;;;;;16.20;12.75;;;;;;;7.71;85.70;100220.25;5086226;28;20625;-74
2021/04/30 06:19:47;;;;;;;15.07;11.98;;;;;;;7.97;84.38;100220.59;5094178;28;20398;-76
2021/04/30 06:22:14;;;;;;;14.60;11.68;;;;;;;7.95;83.61;100220.69;5082660;28;20055;-77
2021/04/30 06:24:41;;;;;;;13.40;10.50;;;;;;;7.94;83.55;100231.25;5070078;28;20092;-75
2021/04/30 06:27:08;;;;;;;13.18;10.70;;;;;;;7.96;83.11;100237.25;5071130;28;20506;-78
2021/04/30 06:29:34;;;;;;;13.90;10.10;;;;;;;8.08;83.31;100240.06;5079864;28;20167;-76
2021/04/30 06:32:02;;;;;;;14.23;10.32;;;;;;;8.00;82.84;100247.50;5097304;28;20111;-76
2021/04/30 06:34:29;;;;;;;10.38;8.82;;;;;;;8.13;82.48;100260.78;5076821;28;20056;-76
2021/04/30 06:36:56;;;;;;;14.23;9.23;;;;;;;8.09;82.55;100261.88;5084695;28;20142;-76
2021/04/30 06:39:23;;;;;;;12.55;8.75;;;;;;;8.08;80.94;100258.41;5064833;28;20776;-75
2021/04/30 06:41:51;;;;;;;10.70;7.07;;;;;;;8.21;79.95;100252.50;5054375;28;20056;-76
2021/04/30 06:44:17;;;;;;;12.27;6.55;;;;;;;8.29;79.24;100259.03;5082954;28;20691;-78
2021/04/30 06:46:44;;;;;;;10.77;5.65;;;;;;;8.49;76.58;100262.34;5081607;28;20078;-76
2021/04/30 06:49:11;;;;;;;7.35;5.25;;;;;;;8.48;76.44;100266.75;5053974;28;20076;-76
2021/04/30 06:51:38;;;;;;;9.27;4.53;;;;;;;8.59;75.48;100274.84;5077924;28;20135;-79
2021/04/30 06:54:05;;;;;;;9.45;4.72;;;;;;;8.62;75.03;100271.22;5082120;28;20059;-78
2021/04/30 06:56:32;;;;;;;8.10;5.53;;;;;;;8.54;75.23;100278.66;5082640;28;20076;-78
2021/04/30 06:58:58;;;;;;;10.23;5.35;;;;;;;8.43;75.86;100276.66;5075150;28;20032;-81
2021/04/30 07:01:26;;;;;;;10.48;4.72;;;;;;;8.26;76.72;100288.03;5104760;27;20112;-80
2021/04/30 07:04:00;;;;;;;7.80;5.22;;;;;;;8.10;76.88;100290.66;5111636;28;20063;-81
2021/04/30 07:06:27;;;;;;;9.00;5.50;;;;;;;8.23;77.40;100295.22;5087393;28;20053;-80
2021/04/30 07:08:54;;;;;;;9.15;5.53;;;;;;;8.23;77.51;100296.06;5070274;28;20139;-80
2021/04/30 07:11:21;;;;;;;6.40;4.75;;;;;;;8.03;76.41;100302.38;5072308;28;20194;-82
2021/04/30 07:13:48;;;;;;;7.10;4.32;;;;;;;7.93;77.21;100306.44;5085081;28;20058;-81
2021/04/30 07:16:15;;;;;;;9.05;4.45;;;;;;;7.77;77.34;100310.78;5060400;28;20052;-81
2021/04/30 07:18:42;;;;;;;7.07;4.50;;;;;;;7.81;77.10;100312.31;5067815;28;20048;-81
2021/04/30 07:21:09;;;;;;;6.60;4.53;;;;;;;7.83;77.15;100316.56;5061927;28;20649;-81
2021/04/30 07:23:36;;;;;;;6.65;4.50;;;;;;;7.93;77.22;100326.56;5066382;28;20044;-80
2021/04/30 07:26:03;;;;;;;7.05;4.35;;;;;;;8.22;76.22;100325.84;5085948;28;20616;-81
2021/04/30 07:28:29;;;;;;;6.03;3.97;;;;;;;8.22;76.51;100330.22;5078930;28;20045;-81
2021/04/30 07:30:57;;;;;;;8.02;4.57;;;;;;;8.48;75.68;100329.69;5061352;28;20078;-82
2021/04/30 07:33:24;;;;;;;7.32;3.88;;;;;;;8.60;74.93;100333.41;5055595;28;20048;-82
2021/04/30 07:35:51;;;;;;;10.10;4.45;;;;;;;8.80;74.33;100345.44;5078864;28;20054;-80
2021/04/30 07:38:18;;;;;;;7.75;4.53;;;;;;;8.57;73.26;100344.94;5038499;28;20473;-78
2021/04/30 07:40:44;;;;;;;6.65;4.18;;;;;;;8.60;74.14;100342.16;5063832;28;20052;-82
2021/04/30 07:43:12;;;;;;;6.93;4.20;;;;;;;8.85;72.62;100346.88;5094128;28;20048;-77
2021/04/30 07:45:41;;;;;;;9.25;4.15;;;;;;;9.04;71.87;100344.03;5081045;28;20075;-76
2021/04/30 07:48:09;;;;;;;5.70;4.22;;;;;;;8.67;72.83;100355.75;5081955;28;20162;-77
2021/04/30 07:50:37;;;;;;;6.70;4.55;;;;;;;8.52;73.78;100357.47;5076880;28;20062;-75
2021/04/30 07:53:04;;;;;;;7.68;4.82;;;;;;;8.51;73.40;100365.41;5083008;28;20087;-76
2021/04/30 07:55:32;;;;;;;7.75;4.63;;;;;;;8.36;74.16;100365.31;5083965;28;20533;-79
2021/04/30 07:57:59;;;;;;;8.13;3.90;;;;;;;8.33;74.32;100377.69;5096997;28;20139;-75
2021/04/30 08:00:26;;;;;;;6.68;4.80;;;;;;;8.08;75.27;100373.75;5087586;28;20053;-76
2021/04/30 08:02:53;;;;;;;7.85;4.38;;;;;;;8.16;75.46;100375.16;5085476;28;20333;-75
2021/04/30 08:05:20;;;;;;;6.95;4.68;;;;;;;8.53;73.93;100376.66;5070396;28;20552;-74
2021/04/30 08:07:47;;;;;;;7.43;4.75;;;;;;;8.45;73.84;100378.84;5081192;28;20151;-76
2021/04/30 08:10:14;;;;;;;7.75;5.00;;;;;;;8.85;73.63;100391.50;5067116;28;20056;-75
2021/04/30 08:12:41;;;;;;;7.32;4.55;;;;;;;8.90;71.76;100382.50;5074001;28;20079;-76
2021/04/30 08:15:09;;;;;;;8.93;4.80;;;;;;;8.53;73.16;100385.38;5096120;28;20053;-76
2021/04/30 08:17:36;;;;;;;7.57;4.93;;;;;;;8.39;73.40;100387.91;5081266;28;20048;-75
2021/04/30 08:20:07;;;;;;;6.53;4.47;;;;;;;8.49;73.94;100391.72;5079478;28;20129;-78
2021/04/30 08:22:35;;;;;;;35.15;6.22;;;;;;;8.74;73.34;100393.03;5069527;28;20087;-77
2021/04/30 08:25:03;;;;;;;6.47;4.78;;;;;;;8.69;74.03;100395.91;5078095;28;20047;-77
2021/04/30 08:27:30;;;;;;;7.97;4.93;;;;;;;8.69;73.86;100397.66;5055527;28;20044;-79
2021/04/30 08:29:57;;;;;;;8.63;4.80;;;;;;;8.73;73.10;100412.31;5065795;28;20080;-75
2021/04/30 08:32:23;;;;;;;7.03;4.97;;;;;;;8.43;74.46;100407.81;5072740;28;20131;-72
2021/04/30 08:34:51;;;;;;;16.30;5.35;;;;;;;8.20;74.76;100418.63;5083841;28;20059;-73
2021/04/30 08:37:17;;;;;;;8.07;4.32;;;;;;;8.22;73.93;100428.09;5076298;28;20171;-75
2021/04/30 08:39:45;;;;;;;6.72;4.13;;;;;;;7.95;74.68;100425.13;5085646;28;20226;-77
2021/04/30 08:42:16;;;;;;;9.55;4.15;;;;;;;7.98;74.72;100439.88;5082722;28;20084;-76
2021/04/30 08:44:43;;;;;;;5.90;3.85;;;;;;;7.66;74.85;100438.88;5045759;28;20048;-79
2021/04/30 08:47:18;;;;;;;6.55;4.40;;;;;;;7.72;74.38;100436.78;5092087;28;20055;-79
2021/04/30 08:49:46;;;;;;;15.27;4.53;;;;;;;7.92;74.18;100434.91;5096204;28;20078;-77
2021/04/30 08:52:15;;;;;;;8.65;4.18;;;;;;;8.15;73.17;100432.00;5096246;28;20048;-77
2021/04/30 08:54:42;;;;;;;6.90;3.60;;;;;;;8.25;72.11;100438.44;5074401;28;20647;-78
2021/04/30 08:57:10;;;;;;;7.93;4.32;;;;;;;8.39;71.77;100444.78;5093233;28;20048;-76
2021/04/30 08:59:37;;;;;;;9.55;4.03;;;;;;;8.64;70.74;100442.53;5090875;28;20071;-79
2021/04/30 09:02:04;;;;;;;9.55;3.00;;;;;;;8.70;69.37;100439.59;5094013;28;20143;-75
2021/04/30 09:04:34;;;;;;;7.93;3.50;;;;;;;8.80;69.13;100435.53;5090150;28;20135;-76
2021/04/30 09:07:31;;;;;;;7.72;3.05;;;;;;;8.80;68.64;100453.06;5066356;28;20071;-75
2021/04/30 09:10:04;;;;;;;7.15;3.67;;;;;;;8.91;68.36;100453.28;5053842;28;20064;-76
2021/04/30 09:12:32;;;;;;;5.43;4.20;;;;;;;9.25;67.85;100449.66;5088589;28;20060;-76
2021/04/30 09:14:59;;;;;;;6.20;3.72;;;;;;;9.62;66.21;100453.66;5090785;28;20069;-78
2021/04/30 09:17:27;;;;;;;6.72;4.22;;;;;;;9.82;65.76;100457.78;5097267;28;20175;-76
2021/04/30 09:20:01;;;;;;;10.30;3.42;;;;;;;9.88;65.35;100456.56;5088153;28;20098;-75
2021/04/30 09:22:34;;;;;;;6.20;3.72;;;;;;;9.69;65.53;100463.84;5088583;28;20528;-77
2021/04/30 09:25:02;;;;;;;6.00;3.47;;;;;;;9.94;64.60;100450.09;5067898;28;20039;-77
2021/04/30 09:27:29;;;;;;;6.07;3.90;;;;;;;10.57;63.15;100462.97;5081146;28;20163;-75
2021/04/30 09:30:14;;;;;;;8.57;4.25;;;;;;;10.84;61.70;100461.25;5083996;28;20123;-76
2021/04/30 09:33:04;;;;;;;7.20;2.72;;;;;;;11.36;60.26;100457.94;5089160;28;20678;-76
2021/04/30 09:35:34;;;;;;;8.27;3.80;;;;;;;11.13;58.76;100463.84;5083718;28;20598;-76
2021/04/30 09:38:17;;;;;;;5.63;3.55;;;;;;;11.79;57.31;100456.91;5065671;28;20109;-76
2021/04/30 09:40:44;;;;;;;5.55;3.25;;;;;;;12.29;55.88;100456.19;5073980;28;20052;-76
2021/04/30 09:43:12;;;;;;;5.68;3.70;;;;;;;12.58;53.86;100461.22;5088835;22;20068;-70
2021/04/30 09:45:40;;;;;;;11.65;4.18;;;;;;;11.33;56.87;100463.41;5044727;28;20049;-69
2021/04/30 09:48:12;;;;;;;7.55;3.00;;;;;;;10.76;58.87;100468.81;5048544;28;20087;-70
2021/04/30 09:50:44;;;;;;;3.90;2.85;;;;;;;11.11;58.47;100474.47;5006148;28;20061;-70
2021/04/30 09:53:12;;;;;;;9.57;3.15;;;;;;;10.86;59.02;100479.63;5025678;28;20064;-69
2021/04/30 09:55:46;;;;;;;4.82;3.58;;;;;;;11.06;57.47;100479.19;5050252;28;20128;-71
2021/04/30 09:58:15;;;;;;;5.75;2.88;;;;;;;11.07;57.21;100477.41;5033559;28;20240;-70
2021/04/30 10:00:43;;;;;;;5.88;2.92;;;;;;;10.84;57.60;100484.13;5042772;28;20139;-69
2021/04/30 10:03:13;;;;;;;6.03;2.70;;;;;;;10.82;58.87;100484.22;5026697;28;20052;-70
2021/04/30 10:06:01;;;;;;;4.32;3.03;;;;;;;10.58;58.66;100491.84;5027779;28;20049;-69
2021/04/30 10:08:29;;;;;;;8.68;3.40;;;;;;;9.80;60.57;100495.59;5032960;28;20053;-71
2021/04/30 10:10:56;;;;;;;5.85;3.20;;;;;;;9.94;61.15;100489.53;5006533;28;20083;-71
2021/04/30 10:13:39;;;;;;;5.88;3.03;;;;;;;10.26;59.90;100488.50;5023244;28;20128;-71
2021/04/30 10:16:06;;;;;;;4.70;3.53;;;;;;;11.01;58.18;100489.19;5036726;28;20081;-69
2021/04/30 10:18:33;;;;;;;3.90;2.55;;;;;;;11.84;56.11;100486.50;5028352;28;20320;-70
2021/04/30 10:21:00;;;;;;;6.07;3.00;;;;;;;12.64;54.21;100484.56;5012621;28;20065;-70
2021/04/30 10:23:27;;;;;;;12.38;3.60;;;;;;;12.57;52.99;100485.94;5045103;28;20068;-70
2021/04/30 10:25:55;;;;;;;4.45;3.25;;;;;;;12.67;53.00;100482.56;5028807;28;20592;-70
2021/04/30 10:28:27;;;;;;;5.65;3.40;;;;;;;13.21;51.03;100477.91;4997919;28;20045;-72
2021/04/30 10:30:58;;;;;;;6.68;4.20;;;;;;;13.70;51.43;100479.63;5019002;28;20223;-70
2021/04/30 10:33:44;;;;;;;3.72;3.13;;;;;;;13.67;51.10;100473.59;5030234;28;20083;-71
2021/04/30 10:36:30;;;;;;;4.43;3.47;;;;;;;13.89;49.31;100474.66;5036381;28;20566;-70
2021/04/30 10:38:58;;;;;;;4.75;2.90;;;;;;;12.98;51.21;100479.56;5027377;28;20068;-70
2021/04/30 10:41:38;;;;;;;9.07;3.15;;;;;;;11.87;53.97;100486.28;5029987;28;20076;-69
2021/04/30 10:44:29;;;;;;;4.35;2.90;;;;;;;12.55;52.61;100474.63;5031343;28;20052;-69
2021/04/30 10:47:04;;;;;;;7.80;3.13;;;;;;;12.52;52.66;100473.06;5055412;28;20524;-70
2021/04/30 10:49:32;;;;;;;5.07;2.75;;;;;;;12.34;52.15;100484.91;5057920;28;20646;-70
2021/04/30 10:52:08;;;;;;;8.52;3.22;;;;;;;11.98;53.05;100478.53;5052833;28;20136;-69
2021/04/30 10:54:39;;;;;;;5.03;3.03;;;;;;;11.87;53.22;100481.03;5048027;28;20477;-69
2021/04/30 10:57:09;;;;;;;3.38;2.58;;;;;;;11.75;54.04;100476.53;5045082;28;20051;-70
2021/04/30 10:59:40;;;;;;;7.22;3.60;;;;;;;10.44;57.25;100488.34;5027083;28;20077;-70
2021/04/30 11:02:17;;;;;;;8.57;3.15;;;;;;;10.60;56.92;100483.84;5023941;28;20584;-71
2021/04/30 11:05:12;;;;;;;5.95;3.30;;;;;;;10.88;57.12;100483.00;5044499;28;20053;-71
2021/04/30 11:07:52;;;;;;;5.32;2.80;;;;;;;10.86;57.02;100476.97;5049907;28;20135;-70
2021/04/30 11:10:31;;;;;;;5.95;3.13;;;;;;;10.98;57.27;100481.47;5041521;28;20050;-71
2021/04/30 11:13:10;;;;;;;4.72;3.10;;;;;;;11.80;54.84;100477.09;5037793;28;20083;-70
2021/04/30 11:15:46;;;;;;;6.35;3.13;;;;;;;11.89;53.28;100477.34;5048516;28;20048;-71
2021/04/30 11:18:23;;;;;;;4.88;3.38;;;;;;;11.51;54.26;100482.47;5053690;28;20144;-70
2021/04/30 11:21:01;;;;;;;6.53;3.35;;;;;;;12.05;53.86;100468.38;5022065;28;20091;-70
2021/04/30 11:23:52;;;;;;;4.10;2.63;;;;;;;12.42;53.32;100474.63;5025257;28;20116;-71
2021/04/30 11:26:19;;;;;;;6.53;3.45;;;;;;;11.20;55.75;100478.31;5032170;28;20079;-71
2021/04/30 11:28:45;;;;;;;3.85;2.50;;;;;;;10.79;56.99;100483.56;5014574;28;20390;-69
2021/04/30 11:31:16;;;;;;;7.05;3.20;;;;;;;10.75;58.13;100488.16;5028717;28;20617;-72